Time;durP1;ratioP1;P1;durP2;ratioP2;P2;SDS_P1;SDS_P2;PMS_P1;PMS_P2;Temp;Humidity;BMP_temperature;BMP_pressure;BME280_temperature;BME280_humidity;BME280_pressure;Samples;Min_cycle;Max_cycle;Signal;HPM_P1;HPM_P2
2023/09/30 00:00:01;;;;;;;9.80;1.58;;;11.50;99.90;;;;;;4982345;28;20086;-92
2023/09/30 00:02:27;;;;;;;7.53;1.23;;;11.60;99.90;;;;;;4977524;28;20109;-94
2023/09/30 00:04:53;;;;;;;7.63;1.50;;;11.50;99.90;;;;;;4977258;28;20022;-93
2023/09/30 00:07:19;;;;;;;5.72;1.45;;;11.50;99.90;;;;;;4977195;28;20030;-93
2023/09/30 00:09:45;;;;;;;9.18;1.52;;;11.50;99.90;;;;;;4985629;28;20030;-93
2023/09/30 00:12:11;;;;;;;11.00;1.60;;;11.50;99.90;;;;;;5005253;28;20046;-92
2023/09/30 00:14:37;;;;;;;11.90;1.98;;;11.50;99.90;;;;;;4986476;28;20027;-94
2023/09/30 00:17:03;;;;;;;7.70;1.50;;;11.60;99.90;;;;;;4984863;28;20484;-94
2023/09/30 00:19:29;;;;;;;9.02;1.33;;;11.60;99.90;;;;;;5000404;28;20080;-94
2023/09/30 00:21:54;;;;;;;7.10;1.70;;;11.60;99.90;;;;;;4981139;28;20053;-92
2023/09/30 00:24:20;;;;;;;13.07;1.55;;;11.50;99.90;;;;;;4997063;28;20019;-92
2023/09/30 00:26:50;;;;;;;6.18;1.27;;;11.60;99.90;;;;;;4981561;28;20022;-93
2023/09/30 00:29:17;;;;;;;14.77;1.75;;;11.50;99.90;;;;;;4983293;28;20034;-92
2023/09/30 00:31:44;;;;;;;8.25;1.58;;;11.50;99.90;;;;;;5000659;28;20037;-93
2023/09/30 00:34:10;;;;;;;11.75;2.35;;;11.50;99.90;;;;;;4984286;28;20042;-92
2023/09/30 00:36:36;;;;;;;8.13;1.42;;;11.50;99.90;;;;;;4983771;28;20044;-92
2023/09/30 00:39:02;;;;;;;5.85;1.10;;;11.40;99.90;;;;;;4999035;28;20033;-93
2023/09/30 00:41:28;;;;;;;14.05;1.75;;;11.40;99.90;;;;;;4992344;28;20023;-93
2023/09/30 00:43:54;;;;;;;6.70;1.25;;;11.30;99.90;;;;;;4983092;28;20501;-92
2023/09/30 00:46:46;;;;;;;4.55;1.02;;;11.40;99.90;;;;;;4972044;28;20109;-93
2023/09/30 00:49:14;;;;;;;6.57;1.70;;;11.40;99.90;;;;;;4989115;28;20065;-93
2023/09/30 00:51:40;;;;;;;11.48;1.75;;;11.40;99.90;;;;;;4965808;28;20027;-91
2023/09/30 00:54:06;;;;;;;10.43;1.85;;;11.40;99.90;;;;;;4962862;28;20031;-92
2023/09/30 00:56:37;;;;;;;3.10;1.13;;;11.40;99.90;;;;;;4962831;28;20042;-93
2023/09/30 00:59:03;;;;;;;8.13;1.60;;;11.40;99.90;;;;;;4980505;28;20035;-93
2023/09/30 01:01:29;;;;;;;10.82;1.60;;;11.40;99.90;;;;;;4965549;28;20027;-91
2023/09/30 01:03:59;;;;;;;6.80;1.35;;;11.40;99.90;;;;;;4996874;28;20045;-92
2023/09/30 01:06:26;;;;;;;5.57;1.20;;;11.40;99.90;;;;;;4982997;28;20026;-91
2023/09/30 01:08:52;;;;;;;7.05;1.60;;;11.40;99.90;;;;;;4999932;28;20027;-91
2023/09/30 01:11:19;;;;;;;5.60;1.75;;;11.40;99.90;;;;;;4983533;28;20039;-92
2023/09/30 01:13:44;;;;;;;12.27;1.95;;;11.40;99.90;;;;;;4983768;28;20026;-91
2023/09/30 01:16:12;;;;;;;11.48;2.42;;;11.30;99.90;;;;;;4979952;28;20031;-93
2023/09/30 01:18:42;;;;;;;5.57;1.30;;;11.30;99.90;;;;;;4967192;28;20062;-95
2023/09/30 01:21:08;;;;;;;9.27;1.70;;;11.30;99.90;;;;;;4980766;28;20030;-95
2023/09/30 01:23:35;;;;;;;8.40;2.60;;;11.20;99.90;;;;;;4963400;28;20038;-93
2023/09/30 01:26:03;;;;;;;7.90;1.42;;;11.20;99.90;;;;;;4963122;28;20059;-94
2023/09/30 01:28:30;;;;;;;9.07;2.08;;;11.20;99.90;;;;;;4962288;28;20033;-94
2023/09/30 01:30:56;;;;;;;7.53;1.83;;;11.20;99.90;;;;;;4961788;28;20074;-92
2023/09/30 01:33:22;;;;;;;9.48;1.70;;;11.10;99.90;;;;;;4961361;28;20033;-94
2023/09/30 01:35:47;;;;;;;5.88;2.13;;;11.10;99.90;;;;;;4979080;28;20089;-93
2023/09/30 01:38:13;;;;;;;8.07;1.67;;;11.10;99.90;;;;;;4978527;28;20023;-93
2023/09/30 01:40:39;;;;;;;11.60;1.75;;;11.10;99.90;;;;;;4961420;28;20034;-92
2023/09/30 01:43:05;;;;;;;5.22;1.45;;;11.10;99.90;;;;;;4961187;28;20372;-92
2023/09/30 01:45:30;;;;;;;9.05;1.80;;;11.10;99.90;;;;;;4978168;28;20105;-94
2023/09/30 01:47:56;;;;;;;5.82;2.45;;;11.10;99.90;;;;;;4961112;28;20062;-92
2023/09/30 01:50:21;;;;;;;8.32;1.27;;;11.20;99.90;;;;;;4960791;28;20138;-93
2023/09/30 01:52:47;;;;;;;6.35;1.58;;;11.10;99.90;;;;;;4977706;28;20033;-93
2023/09/30 01:55:13;;;;;;;10.27;2.00;;;11.00;99.90;;;;;;4960985;28;20063;-91
2023/09/30 01:57:38;;;;;;;6.22;1.48;;;11.00;99.90;;;;;;4960991;28;20341;-91
2023/09/30 02:00:05;;;;;;;12.48;2.20;;;10.90;99.90;;;;;;4978120;28;20034;-94
2023/09/30 02:02:31;;;;;;;7.45;1.48;;;10.90;99.90;;;;;;4978220;28;20026;-93
2023/09/30 02:04:58;;;;;;;10.70;1.63;;;10.90;99.90;;;;;;4962383;28;20031;-93
2023/09/30 02:07:24;;;;;;;8.23;1.90;;;10.90;99.90;;;;;;4965678;28;20042;-91
2023/09/30 02:09:53;;;;;;;4.50;1.60;;;10.90;99.90;;;;;;4963306;28;20023;-91
2023/09/30 02:12:18;;;;;;;7.13;1.83;;;10.90;99.90;;;;;;4977399;28;20109;-92
2023/09/30 02:14:46;;;;;;;6.30;1.60;;;10.90;99.90;;;;;;4977117;28;20062;-93
2023/09/30 02:17:13;;;;;;;8.20;1.45;;;10.90;99.90;;;;;;4959799;28;20515;-92
2023/09/30 02:19:40;;;;;;;8.57;1.80;;;10.90;99.90;;;;;;4960176;28;20058;-92
2023/09/30 02:22:06;;;;;;;8.30;1.85;;;10.90;99.90;;;;;;4959716;28;20101;-91
2023/09/30 02:24:32;;;;;;;9.80;1.50;;;10.90;99.90;;;;;;4959470;28;20053;-92
2023/09/30 02:26:58;;;;;;;6.50;1.38;;;10.80;99.90;;;;;;4959213;28;20086;-92
2023/09/30 02:29:24;;;;;;;7.22;1.58;;;10.80;99.90;;;;;;4959990;28;20042;-93
2023/09/30 02:31:49;;;;;;;9.93;1.92;;;10.80;99.90;;;;;;4960448;28;20033;-92
2023/09/30 02:34:15;;;;;;;7.85;1.90;;;10.80;99.90;;;;;;4975895;28;20058;-92
2023/09/30 02:36:41;;;;;;;8.10;2.25;;;10.80;99.90;;;;;;4976365;28;20039;-91
2023/09/30 02:39:09;;;;;;;9.95;2.38;;;10.80;99.90;;;;;;4976298;28;20102;-92
2023/09/30 02:41:35;;;;;;;16.80;2.33;;;10.90;99.90;;;;;;4959393;28;20038;-92
2023/09/30 02:44:01;;;;;;;8.95;2.25;;;10.90;99.90;;;;;;4959515;28;20070;-92
2023/09/30 02:46:29;;;;;;;12.88;2.55;;;10.90;99.90;;;;;;4959284;28;20109;-92
2023/09/30 02:48:55;;;;;;;11.77;2.10;;;10.90;99.90;;;;;;4958606;28;20037;-91
2023/09/30 02:51:20;;;;;;;12.68;2.05;;;10.90;99.90;;;;;;4958710;28;20030;-91
2023/09/30 02:53:48;;;;;;;8.93;2.15;;;10.90;99.90;;;;;;4958681;28;20031;-92
2023/09/30 02:56:14;;;;;;;12.55;2.45;;;10.90;99.90;;;;;;4976683;28;20034;-92
2023/09/30 02:58:40;;;;;;;9.73;2.00;;;10.90;99.90;;;;;;4958860;28;20030;-91
2023/09/30 03:01:06;;;;;;;13.73;2.10;;;10.90;99.90;;;;;;4976076;28;20027;-93
2023/09/30 03:03:33;;;;;;;16.70;2.17;;;10.90;99.90;;;;;;4959220;28;20126;-90
2023/09/30 03:06:00;;;;;;;14.35;2.05;;;10.90;99.90;;;;;;4960498;28;20027;-92
2023/09/30 03:08:26;;;;;;;10.50;1.98;;;10.90;99.90;;;;;;4958915;28;20042;-92
2023/09/30 03:10:52;;;;;;;15.57;2.08;;;10.90;99.90;;;;;;4958558;28;20030;-92
2023/09/30 03:13:21;;;;;;;8.15;1.83;;;10.90;99.90;;;;;;4959334;28;20109;-93
2023/09/30 03:15:49;;;;;;;9.45;1.63;;;10.90;99.90;;;;;;4976304;28;20035;-91
2023/09/30 03:18:17;;;;;;;14.52;2.17;;;10.80;99.90;;;;;;4958655;28;20049;-91
2023/09/30 03:20:43;;;;;;;13.77;2.15;;;10.80;99.90;;;;;;4958747;28;20403;-92
2023/09/30 03:23:09;;;;;;;8.00;1.88;;;10.70;99.90;;;;;;4963099;28;20058;-92
2023/09/30 03:25:35;;;;;;;7.78;1.70;;;10.70;99.90;;;;;;4967513;28;20073;-89
2023/09/30 03:28:02;;;;;;;12.23;2.28;;;10.60;99.90;;;;;;4963855;28;20022;-91
2023/09/30 03:30:29;;;;;;;8.80;1.98;;;10.60;99.90;;;;;;4962279;28;20468;-89
2023/09/30 03:32:55;;;;;;;14.80;2.20;;;10.50;99.90;;;;;;4961257;28;20035;-90
2023/09/30 03:35:21;;;;;;;8.90;1.65;;;10.50;99.90;;;;;;4954568;29;20110;-91
2023/09/30 03:37:47;;;;;;;10.07;2.40;;;10.40;99.90;;;;;;4955243;29;20027;-91
2023/09/30 03:40:14;;;;;;;9.60;1.50;;;10.40;99.90;;;;;;4956031;29;20023;-92
2023/09/30 03:42:43;;;;;;;10.52;1.88;;;10.30;99.90;;;;;;4955830;29;20027;-92
2023/09/30 03:45:10;;;;;;;14.40;2.42;;;10.30;99.90;;;;;;4955402;29;20027;-91
2023/09/30 03:47:37;;;;;;;12.63;1.88;;;10.30;99.90;;;;;;4955528;29;20122;-91
2023/09/30 03:50:04;;;;;;;8.10;1.48;;;10.30;99.90;;;;;;4954972;29;20028;-91
2023/09/30 03:52:32;;;;;;;7.80;1.60;;;10.20;99.90;;;;;;4954716;29;20481;-92
2023/09/30 03:55:05;;;;;;;10.68;2.25;;;10.20;99.90;;;;;;4954119;29;20023;-90
2023/09/30 03:57:31;;;;;;;11.27;2.03;;;10.20;99.90;;;;;;4954090;29;20028;-92
2023/09/30 03:59:57;;;;;;;10.82;1.65;;;10.20;99.90;;;;;;4954675;28;20019;-92
2023/09/30 04:02:23;;;;;;;9.90;1.70;;;10.10;99.90;;;;;;4957863;29;20031;-91
2023/09/30 04:04:51;;;;;;;14.70;2.42;;;10.10;99.90;;;;;;4958152;29;20024;-91
2023/09/30 04:07:17;;;;;;;8.75;1.80;;;10.10;99.90;;;;;;4958370;29;20110;-91
2023/09/30 04:09:43;;;;;;;10.25;2.45;;;10.10;99.90;;;;;;4958274;29;20054;-93
2023/09/30 04:12:09;;;;;;;11.30;1.80;;;10.10;99.90;;;;;;4958035;29;20496;-92
2023/09/30 04:14:35;;;;;;;10.52;1.77;;;10.10;99.90;;;;;;4964517;29;20019;-90
2023/09/30 04:17:00;;;;;;;7.40;1.73;;;10.10;99.90;;;;;;4963290;29;20512;-93
2023/09/30 04:19:30;;;;;;;12.55;2.42;;;10.10;99.90;;;;;;4957842;29;20485;-91
2023/09/30 04:21:56;;;;;;;7.50;1.63;;;10.10;99.90;;;;;;4958223;29;20062;-90
2023/09/30 04:24:22;;;;;;;13.98;1.80;;;10.10;99.90;;;;;;4957704;29;20030;-92
2023/09/30 04:26:50;;;;;;;12.75;2.05;;;10.10;99.90;;;;;;4958236;29;20023;-92
2023/09/30 04:29:17;;;;;;;10.38;1.80;;;10.10;99.90;;;;;;4966908;28;20671;-91
2023/09/30 04:31:43;;;;;;;10.85;1.85;;;10.10;99.90;;;;;;4976832;28;20033;-92
2023/09/30 04:34:09;;;;;;;9.05;1.83;;;10.10;99.90;;;;;;4976360;28;20157;-92
2023/09/30 04:36:35;;;;;;;9.05;2.03;;;10.00;99.90;;;;;;4972946;28;20122;-92
2023/09/30 04:39:01;;;;;;;6.60;1.90;;;9.90;99.90;;;;;;4957389;29;20035;-92
2023/09/30 04:41:27;;;;;;;13.13;2.40;;;9.90;99.90;;;;;;4958413;28;20027;-92
2023/09/30 04:43:52;;;;;;;6.15;1.45;;;9.90;99.90;;;;;;4973830;28;20071;-92
2023/09/30 04:46:20;;;;;;;5.93;1.45;;;9.90;99.90;;;;;;4973383;28;20113;-89
2023/09/30 04:48:48;;;;;;;10.18;2.08;;;9.90;99.90;;;;;;4973224;28;20035;-90
2023/09/30 04:51:16;;;;;;;7.25;2.03;;;10.00;99.90;;;;;;4972532;28;20041;-90
2023/09/30 04:53:41;;;;;;;7.13;1.60;;;9.90;99.90;;;;;;4957306;29;20051;-89
2023/09/30 04:56:07;;;;;;;8.90;2.00;;;9.90;99.90;;;;;;4973348;28;20070;-92
2023/09/30 04:58:33;;;;;;;17.50;2.38;;;10.00;99.90;;;;;;4973426;28;20031;-90
2023/09/30 05:00:58;;;;;;;5.97;1.60;;;10.00;99.90;;;;;;4973424;28;20031;-92
2023/09/30 05:03:24;;;;;;;8.88;1.65;;;10.00;99.90;;;;;;4973076;28;20081;-91
2023/09/30 05:05:57;;;;;;;18.02;2.33;;;10.10;99.90;;;;;;4973153;28;20023;-92
2023/09/30 05:08:24;;;;;;;11.02;2.88;;;10.00;99.90;;;;;;4956265;29;20492;-92
2023/09/30 05:10:50;;;;;;;6.38;1.70;;;10.00;99.90;;;;;;4972872;28;20195;-93
2023/09/30 05:13:15;;;;;;;7.95;1.95;;;10.00;99.90;;;;;;4972672;28;20311;-92
2023/09/30 05:15:41;;;;;;;5.13;1.63;;;10.00;99.90;;;;;;4972831;28;20033;-91
2023/09/30 05:18:10;;;;;;;9.55;1.70;;;10.00;99.90;;;;;;4973103;28;20027;-93
2023/09/30 05:20:39;;;;;;;7.65;1.70;;;10.00;99.90;;;;;;4972425;28;20035;-91
2023/09/30 05:23:07;;;;;;;7.15;1.40;;;10.00;99.90;;;;;;4956496;29;20039;-93
2023/09/30 05:25:32;;;;;;;9.68;2.17;;;9.90;99.90;;;;;;4973202;28;20083;-91
2023/09/30 05:27:58;;;;;;;10.07;1.90;;;9.90;99.90;;;;;;4973201;28;20104;-91
2023/09/30 05:30:23;;;;;;;8.65;1.70;;;9.90;99.90;;;;;;4973079;28;20477;-92
2023/09/30 05:32:52;;;;;;;7.05;1.50;;;9.80;99.90;;;;;;4972401;28;20090;-91
2023/09/30 05:35:17;;;;;;;11.95;2.30;;;9.80;99.90;;;;;;4972585;28;20047;-91
2023/09/30 05:37:47;;;;;;;8.48;1.70;;;9.70;99.90;;;;;;4972580;28;20100;-93
2023/09/30 05:40:22;;;;;;;9.13;1.65;;;9.70;99.90;;;;;;4956581;29;20388;-91
2023/09/30 05:42:51;;;;;;;5.82;1.70;;;9.70;99.90;;;;;;4972455;28;20031;-90
2023/09/30 05:45:17;;;;;;;7.68;1.42;;;9.70;99.90;;;;;;4973466;28;20094;-92
2023/09/30 05:47:44;;;;;;;12.15;2.30;;;9.70;99.90;;;;;;4973591;28;20024;-92
2023/09/30 05:50:14;;;;;;;12.90;1.70;;;9.70;99.90;;;;;;4974092;28;20027;-91
2023/09/30 05:52:42;;;;;;;8.20;1.67;;;9.70;99.90;;;;;;4984740;28;20012;-91
2023/09/30 05:55:08;;;;;;;6.28;1.50;;;9.60;99.90;;;;;;4979399;28;20020;-93
2023/09/30 05:57:35;;;;;;;6.43;1.60;;;9.60;99.90;;;;;;4995921;28;20037;-91
2023/09/30 06:00:11;;;;;;;6.07;1.58;;;9.60;99.90;;;;;;4980112;28;20031;-91
2023/09/30 06:02:37;;;;;;;6.55;1.27;;;9.60;99.90;;;;;;4980658;28;20076;-91
2023/09/30 06:05:03;;;;;;;8.25;2.17;;;9.50;99.90;;;;;;4996244;28;20023;-91
2023/09/30 06:07:29;;;;;;;4.75;1.63;;;9.50;99.90;;;;;;4975069;28;20031;-92
2023/09/30 06:09:55;;;;;;;6.10;1.70;;;9.40;99.90;;;;;;4962972;29;20035;-92
2023/09/30 06:12:20;;;;;;;7.20;1.35;;;9.40;99.90;;;;;;4989628;28;20053;-92
2023/09/30 06:14:46;;;;;;;3.38;1.55;;;9.30;99.90;;;;;;4989496;28;20038;-93
2023/09/30 06:17:11;;;;;;;6.70;2.63;;;9.30;99.90;;;;;;4981847;28;20468;-92
2023/09/30 06:19:37;;;;;;;6.93;1.63;;;9.30;99.90;;;;;;4981396;28;20022;-94
2023/09/30 06:22:03;;;;;;;6.10;1.70;;;9.30;99.90;;;;;;4990748;28;20472;-92
2023/09/30 06:24:30;;;;;;;10.68;2.47;;;9.30;99.90;;;;;;4981106;28;20042;-93
2023/09/30 06:26:55;;;;;;;6.10;1.70;;;9.20;99.90;;;;;;4992012;28;20069;-95
2023/09/30 06:29:23;;;;;;;10.77;1.88;;;9.20;99.90;;;;;;4964710;28;20035;-93
2023/09/30 06:31:49;;;;;;;7.38;1.73;;;9.20;99.90;;;;;;4992970;28;20118;-91
2023/09/30 06:34:15;;;;;;;8.43;1.65;;;9.30;99.90;;;;;;4982074;28;20399;-91
2023/09/30 06:36:40;;;;;;;9.50;1.90;;;9.30;99.90;;;;;;4992912;28;20042;-91
2023/09/30 06:39:06;;;;;;;8.43;1.83;;;9.30;99.90;;;;;;4995049;28;20460;-91
2023/09/30 06:41:33;;;;;;;5.20;1.80;;;9.30;99.90;;;;;;4992400;28;20030;-91
2023/09/30 06:43:59;;;;;;;8.85;1.63;;;9.30;99.90;;;;;;4987593;28;20027;-94
2023/09/30 06:46:24;;;;;;;5.35;1.70;;;9.30;99.90;;;;;;4986558;28;20038;-94
2023/09/30 06:48:52;;;;;;;5.97;1.90;;;9.30;99.90;;;;;;4989032;28;20023;-93
2023/09/30 06:51:17;;;;;;;9.18;1.95;;;9.30;99.90;;;;;;4981614;28;20027;-94
2023/09/30 06:53:43;;;;;;;8.88;2.08;;;9.30;99.90;;;;;;4984532;28;20011;-93
2023/09/30 06:56:09;;;;;;;5.78;1.70;;;9.30;99.90;;;;;;4987280;28;20043;-94
2023/09/30 06:58:35;;;;;;;8.68;1.77;;;9.30;99.90;;;;;;4986285;28;20026;-93
2023/09/30 07:01:01;;;;;;;5.70;1.73;;;9.30;99.90;;;;;;4981594;28;20035;-93
2023/09/30 07:03:26;;;;;;;6.43;1.60;;;9.40;99.90;;;;;;4981860;28;20039;-93
2023/09/30 07:05:54;;;;;;;6.93;2.00;;;9.50;99.90;;;;;;4981289;28;20105;-92
2023/09/30 07:08:21;;;;;;;6.78;2.10;;;9.50;99.90;;;;;;4982845;28;20042;-93
2023/09/30 07:10:49;;;;;;;8.52;2.10;;;9.50;99.90;;;;;;4983378;28;20396;-91
2023/09/30 07:13:16;;;;;;;12.90;3.13;;;9.50;99.90;;;;;;4984834;28;20053;-94
2023/09/30 07:15:42;;;;;;;11.18;2.70;;;9.60;99.90;;;;;;4986320;28;20558;-91
2023/09/30 07:18:08;;;;;;;3.88;1.70;;;9.60;99.90;;;;;;4985365;28;20124;-91
2023/09/30 07:20:34;;;;;;;11.70;2.05;;;9.60;99.90;;;;;;4983740;28;20051;-93
2023/09/30 07:23:03;;;;;;;8.32;2.03;;;9.60;99.90;;;;;;4982938;28;20118;-94
2023/09/30 07:25:31;;;;;;;12.45;2.42;;;9.60;99.90;;;;;;4981251;28;20094;-92
2023/09/30 07:27:58;;;;;;;9.20;2.10;;;9.70;99.90;;;;;;4983379;28;20030;-94
2023/09/30 07:30:25;;;;;;;10.27;2.47;;;9.70;99.90;;;;;;4987154;28;20472;-93
2023/09/30 07:32:50;;;;;;;14.30;2.15;;;9.80;99.90;;;;;;4983642;28;20118;-95
2023/09/30 07:35:16;;;;;;;7.90;3.42;;;9.80;99.90;;;;;;4985247;28;20463;-95
2023/09/30 07:37:43;;;;;;;14.18;2.22;;;9.90;99.90;;;;;;4984051;28;20030;-93
2023/09/30 07:40:10;;;;;;;10.32;2.10;;;9.90;99.90;;;;;;4978696;28;20085;-91
2023/09/30 07:42:37;;;;;;;19.55;3.80;;;9.90;99.90;;;;;;4957704;28;20063;-90
2023/09/30 07:45:04;;;;;;;9.23;2.10;;;10.00;99.90;;;;;;4959911;29;20043;-91
2023/09/30 07:47:33;;;;;;;6.95;1.95;;;10.00;99.90;;;;;;4978262;28;20039;-90
2023/09/30 07:50:02;;;;;;;7.93;1.95;;;10.00;99.90;;;;;;4977065;29;20047;-93
2023/09/30 07:52:28;;;;;;;7.47;1.98;;;10.10;99.90;;;;;;4962453;29;20023;-92
2023/09/30 07:54:54;;;;;;;12.52;2.47;;;10.20;99.90;;;;;;4963946;28;20109;-91
2023/09/30 07:57:20;;;;;;;7.85;2.28;;;10.30;99.90;;;;;;4988734;28;20034;-91
2023/09/30 07:59:46;;;;;;;8.65;3.33;;;10.40;99.90;;;;;;4993527;28;20037;-90
2023/09/30 08:02:12;;;;;;;12.73;3.28;;;10.50;99.90;;;;;;4982370;28;20072;-91
2023/09/30 08:04:37;;;;;;;8.65;2.42;;;10.60;99.90;;;;;;4977597;28;20046;-91
2023/09/30 08:07:03;;;;;;;13.82;3.38;;;10.70;99.90;;;;;;4965505;28;20047;-92
2023/09/30 08:09:29;;;;;;;16.17;3.60;;;10.80;99.90;;;;;;4959365;28;20023;-92
2023/09/30 08:11:55;;;;;;;14.32;3.67;;;10.90;99.90;;;;;;4959642;28;20042;-92
2023/09/30 08:14:21;;;;;;;18.50;4.20;;;10.90;99.90;;;;;;4962804;28;20028;-91
2023/09/30 08:16:49;;;;;;;15.73;4.22;;;11.00;99.90;;;;;;4961200;28;20041;-94
2023/09/30 08:19:15;;;;;;;22.90;4.05;;;11.10;99.90;;;;;;4963801;28;20098;-93
2023/09/30 08:21:40;;;;;;;17.15;4.32;;;11.20;99.90;;;;;;4970330;28;20030;-92
2023/09/30 08:24:07;;;;;;;19.83;3.95;;;11.30;99.90;;;;;;4981260;28;20040;-93
2023/09/30 08:26:35;;;;;;;22.20;4.72;;;11.40;99.90;;;;;;4976202;28;20109;-92
2023/09/30 08:29:01;;;;;;;14.75;3.50;;;11.50;99.90;;;;;;4976133;28;20038;-93
2023/09/30 08:31:26;;;;;;;22.15;4.05;;;11.70;99.90;;;;;;4973714;28;20027;-93
2023/09/30 08:33:52;;;;;;;17.63;3.85;;;11.80;99.90;;;;;;4973682;28;20068;-93
2023/09/30 08:36:18;;;;;;;22.02;4.22;;;11.90;99.90;;;;;;4975745;28;20522;-94
2023/09/30 08:38:44;;;;;;;14.25;3.08;;;12.00;99.90;;;;;;4960499;28;20500;-92
2023/09/30 08:41:10;;;;;;;26.42;4.28;;;12.10;99.90;;;;;;4973857;28;20062;-92
2023/09/30 08:43:40;;;;;;;18.08;3.67;;;12.20;99.90;;;;;;4973823;28;20062;-93
2023/09/30 08:46:07;;;;;;;15.32;3.20;;;12.20;99.90;;;;;;4973528;28;20391;-92
2023/09/30 08:48:33;;;;;;;13.75;3.40;;;12.30;99.90;;;;;;4976598;28;20027;-93
2023/09/30 08:51:01;;;;;;;17.13;3.05;;;12.40;99.90;;;;;;4977529;28;20118;-94
2023/09/30 08:53:28;;;;;;;15.30;3.30;;;12.50;99.90;;;;;;4976630;28;20043;-93
2023/09/30 08:55:55;;;;;;;13.57;3.40;;;12.60;99.90;;;;;;4976723;28;20086;-93
2023/09/30 08:58:24;;;;;;;19.02;3.30;;;12.70;99.90;;;;;;4976950;28;20019;-94
2023/09/30 09:00:50;;;;;;;13.48;3.22;;;12.80;99.90;;;;;;4976935;28;20058;-94
2023/09/30 09:03:18;;;;;;;12.25;3.42;;;12.90;99.90;;;;;;4977263;28;20027;-92
2023/09/30 09:05:43;;;;;;;16.23;3.10;;;12.90;99.90;;;;;;4977527;28;20105;-93
2023/09/30 09:08:09;;;;;;;10.55;2.88;;;13.00;99.90;;;;;;4977009;28;20066;-93
2023/09/30 09:10:35;;;;;;;15.30;2.45;;;13.10;99.90;;;;;;4976804;28;20027;-93
2023/09/30 09:13:02;;;;;;;10.15;2.88;;;13.20;99.90;;;;;;4976590;28;20058;-93
2023/09/30 09:15:28;;;;;;;10.60;3.00;;;13.30;99.90;;;;;;4976141;28;20424;-93
2023/09/30 09:17:55;;;;;;;11.68;2.47;;;13.40;99.90;;;;;;4976825;28;20035;-93
2023/09/30 09:20:23;;;;;;;9.13;2.67;;;13.40;99.90;;;;;;4976663;28;20023;-93
2023/09/30 09:22:53;;;;;;;8.95;2.85;;;13.50;99.90;;;;;;4977159;28;20053;-93
2023/09/30 09:25:26;;;;;;;19.13;2.42;;;13.60;99.90;;;;;;4976114;28;20026;-93
2023/09/30 09:27:53;;;;;;;17.35;2.55;;;13.60;99.90;;;;;;4976296;28;20477;-93
2023/09/30 09:30:23;;;;;;;15.20;2.45;;;13.60;99.90;;;;;;4977563;28;20030;-93
2023/09/30 09:33:02;;;;;;;12.15;2.67;;;13.70;99.90;;;;;;4974641;28;20057;-92
2023/09/30 09:35:30;;;;;;;10.60;2.30;;;13.70;99.90;;;;;;4976213;28;20078;-95
2023/09/30 09:38:06;;;;;;;12.45;2.15;;;13.80;99.90;;;;;;4976513;28;20042;-93
2023/09/30 09:40:35;;;;;;;18.58;3.17;;;13.80;99.90;;;;;;4979457;28;20030;-94
2023/09/30 09:43:04;;;;;;;12.45;2.13;;;13.90;99.90;;;;;;4984915;28;20106;-93
2023/09/30 09:45:32;;;;;;;17.17;2.33;;;13.90;99.90;;;;;;4985740;28;20102;-93
2023/09/30 09:47:59;;;;;;;8.30;2.03;;;14.10;99.90;;;;;;4984738;28;20029;-94
2023/09/30 09:50:25;;;;;;;10.95;1.92;;;14.20;99.90;;;;;;4979017;28;20031;-92
2023/09/30 09:52:54;;;;;;;7.50;1.90;;;14.30;99.90;;;;;;4976923;28;20117;-92
2023/09/30 09:55:22;;;;;;;13.63;2.08;;;14.30;99.90;;;;;;4976844;28;20035;-92
2023/09/30 09:57:48;;;;;;;12.10;1.80;;;14.30;99.90;;;;;;4976333;28;20030;-93
2023/09/30 10:00:20;;;;;;;11.88;2.78;;;14.40;99.90;;;;;;4975003;28;20034;-92
2023/09/30 10:02:47;;;;;;;14.38;2.45;;;14.40;99.90;;;;;;4975926;28;20050;-92
2023/09/30 10:05:14;;;;;;;15.20;2.30;;;14.50;99.90;;;;;;4976293;28;20081;-92
2023/09/30 10:08:02;;;;;;;6.55;1.80;;;14.50;99.90;;;;;;4975745;28;20030;-93
2023/09/30 10:10:28;;;;;;;11.27;2.00;;;14.60;99.90;;;;;;4976199;28;20117;-92
2023/09/30 10:12:54;;;;;;;12.13;3.40;;;14.70;99.90;;;;;;4976845;28;20035;-93
2023/09/30 10:15:26;;;;;;;10.18;2.40;;;14.70;99.90;;;;;;4975802;28;20019;-92
2023/09/30 10:17:59;;;;;;;8.55;2.00;;;14.70;99.90;;;;;;4976194;28;20027;-92
2023/09/30 10:20:29;;;;;;;11.93;2.20;;;14.70;99.90;;;;;;4976080;28;20022;-94
2023/09/30 10:23:16;;;;;;;12.70;1.73;;;14.80;99.90;;;;;;4975845;28;20053;-94
2023/09/30 10:25:47;;;;;;;12.13;2.35;;;14.80;99.90;;;;;;4976179;28;20051;-93
2023/09/30 10:28:38;;;;;;;15.40;2.20;;;14.70;99.90;;;;;;4976720;28;20105;-94
2023/09/30 10:31:16;;;;;;;13.40;2.00;;;14.70;99.90;;;;;;4979486;28;20034;-94
2023/09/30 10:34:00;;;;;;;8.65;2.10;;;14.70;99.90;;;;;;4978486;28;20603;-93
2023/09/30 10:36:32;;;;;;;9.38;2.00;;;14.60;99.90;;;;;;4978765;28;20046;-93
2023/09/30 10:38:58;;;;;;;9.10;2.28;;;14.60;99.90;;;;;;4977934;28;20022;-93
2023/09/30 10:41:44;;;;;;;14.18;3.15;;;14.50;99.90;;;;;;4978141;28;20042;-93
2023/09/30 10:44:25;;;;;;;11.90;1.90;;;14.50;99.90;;;;;;4978093;28;20026;-94
2023/09/30 10:46:52;;;;;;;15.88;2.47;;;14.50;99.90;;;;;;4977939;28;20032;-93
2023/09/30 10:49:24;;;;;;;8.77;1.77;;;14.50;99.90;;;;;;4977738;28;20039;-93
2023/09/30 10:51:54;;;;;;;8.05;1.83;;;14.50;99.90;;;;;;4977926;28;20144;-93
2023/09/30 10:54:24;;;;;;;;;;;14.50;99.90;;;;;;4980209;28;20391;-92
2023/09/30 10:56:50;;;;;;;10.80;1.98;;;14.50;99.90;;;;;;4977851;28;20459;-94
2023/09/30 10:59:23;;;;;;;11.43;2.10;;;14.50;99.90;;;;;;4977615;28;20034;-93
2023/09/30 11:01:50;;;;;;;12.55;2.20;;;14.60;99.90;;;;;;4978133;28;20038;-94
2023/09/30 11:04:19;;;;;;;14.98;2.05;;;14.60;99.90;;;;;;4978542;28;20026;-94
2023/09/30 11:06:45;;;;;;;14.45;2.08;;;14.60;99.90;;;;;;4995309;28;20105;-93
2023/09/30 11:09:17;;;;;;;6.90;1.70;;;14.60;99.90;;;;;;4978093;28;20030;-94
2023/09/30 11:11:50;;;;;;;6.30;1.77;;;14.60;99.90;;;;;;4978578;28;20030;-95
2023/09/30 11:14:30;;;;;;;10.95;2.30;;;14.60;99.90;;;;;;4977899;28;20046;-94
2023/09/30 11:17:03;;;;;;;8.18;2.35;;;14.70;99.90;;;;;;4977632;28;20380;-92
2023/09/30 11:19:37;;;;;;;14.20;2.05;;;14.80;99.90;;;;;;4977378;28;20030;-93
2023/09/30 11:22:03;;;;;;;9.68;1.98;;;14.80;99.90;;;;;;4977290;28;20022;-94
2023/09/30 11:24:29;;;;;;;11.70;2.13;;;14.80;99.90;;;;;;4977197;28;20022;-95
2023/09/30 11:26:55;;;;;;;12.05;1.70;;;14.90;99.90;;;;;;4977422;28;20117;-92
2023/09/30 11:29:26;;;;;;;11.75;2.10;;;14.90;99.90;;;;;;4977421;28;20113;-93
2023/09/30 11:32:38;;;;;;;7.82;1.58;;;15.00;99.90;;;;;;4977711;28;20524;-91
2023/09/30 11:35:21;;;;;;;8.82;1.60;;;15.10;99.90;;;;;;4977303;28;20042;-91
2023/09/30 11:37:48;;;;;;;7.93;1.80;;;15.20;99.90;;;;;;4977012;28;20099;-92
2023/09/30 11:40:14;;;;;;;7.13;1.67;;;15.40;99.90;;;;;;4977017;28;20019;-93
2023/09/30 11:42:40;;;;;;;11.38;1.42;;;15.50;99.90;;;;;;4977272;28;20033;-93
2023/09/30 11:45:20;;;;;;;11.27;2.35;;;15.60;99.90;;;;;;4977073;28;20026;-92
2023/09/30 11:47:49;;;;;;;7.10;1.73;;;15.60;99.90;;;;;;4979755;28;20041;-93
2023/09/30 11:50:16;;;;;;;7.55;1.95;;;15.60;99.90;;;;;;4981193;28;20113;-94
2023/09/30 11:52:46;;;;;;;6.68;2.08;;;15.60;99.90;;;;;;4979339;28;20053;-94
2023/09/30 11:55:12;;;;;;;7.88;1.60;;;15.60;99.90;;;;;;4965550;28;20074;-92
2023/09/30 11:57:38;;;;;;;9.98;2.53;;;15.60;99.90;;;;;;4977425;28;20034;-92
2023/09/30 12:00:13;;;;;;;8.75;2.00;;;15.60;99.90;;;;;;4976884;28;20369;-93
2023/09/30 12:02:40;;;;;;;10.93;2.10;;;15.60;99.90;;;;;;4994134;28;20023;-92
2023/09/30 12:05:11;;;;;;;13.68;1.88;;;15.50;99.90;;;;;;4976694;28;20037;-93
2023/09/30 12:07:41;;;;;;;8.48;1.55;;;15.60;99.90;;;;;;4976956;28;20075;-93
2023/09/30 12:10:09;;;;;;;10.50;1.85;;;15.60;99.90;;;;;;4976723;28;20026;-92
2023/09/30 12:12:35;;;;;;;9.00;2.15;;;15.60;99.90;;;;;;4976872;28;20539;-94
2023/09/30 12:15:02;;;;;;;8.60;1.70;;;15.50;99.90;;;;;;4976608;28;20050;-92
2023/09/30 12:17:27;;;;;;;6.72;1.60;;;15.50;99.90;;;;;;4976269;28;20069;-92
2023/09/30 12:19:53;;;;;;;8.15;2.40;;;15.50;99.90;;;;;;4976739;28;20046;-92
2023/09/30 12:22:20;;;;;;;10.32;2.08;;;15.40;99.90;;;;;;4977909;28;20030;-93
2023/09/30 12:24:46;;;;;;;7.25;1.80;;;15.40;99.90;;;;;;4980324;28;20032;-92
2023/09/30 12:27:12;;;;;;;10.07;2.08;;;15.40;99.90;;;;;;4980823;28;20030;-94
2023/09/30 12:29:38;;;;;;;8.88;2.38;;;15.40;99.90;;;;;;4980379;28;20029;-93
2023/09/30 12:32:07;;;;;;;11.48;2.05;;;15.40;99.90;;;;;;4982338;28;20099;-92
2023/09/30 12:34:33;;;;;;;9.68;2.17;;;15.40;99.90;;;;;;4984230;28;20053;-92
2023/09/30 12:37:03;;;;;;;7.50;2.10;;;15.40;99.90;;;;;;4983993;28;20034;-94
2023/09/30 12:39:33;;;;;;;7.90;1.90;;;15.40;99.90;;;;;;4983897;28;20097;-92
2023/09/30 12:41:58;;;;;;;15.20;2.17;;;15.40;99.90;;;;;;4984089;28;20037;-94
2023/09/30 12:44:24;;;;;;;12.98;2.00;;;15.30;99.90;;;;;;4982627;28;20022;-93
2023/09/30 12:46:50;;;;;;;12.48;2.88;;;15.30;99.90;;;;;;4980956;28;20575;-95